createdAt,value
2022-09-10T00:01:52.570Z,96082.06
2022-09-10T00:04:54.629Z,96085.75
2022-09-10T00:07:56.286Z,96089.09
2022-09-10T00:10:57.872Z,96086.59
2022-09-10T00:14:01.675Z,96087.81
2022-09-10T00:17:05.182Z,96082.63
2022-09-10T00:20:07.317Z,96077.59
2022-09-10T00:23:09.443Z,96086.31
2022-09-10T00:26:21.868Z,96081.13
2022-09-10T00:29:23.580Z,96072.06
2022-09-10T00:32:25.192Z,96079.94
2022-09-10T00:35:26.839Z,96075.41
2022-09-10T00:38:30.033Z,96077.25
2022-09-10T00:41:33.639Z,96065.84
2022-09-10T00:44:41.241Z,96059.31
2022-09-10T00:47:46.547Z,96063.19
2022-09-10T00:50:51.904Z,96061.31
2022-09-10T00:53:54.153Z,96058.47
2022-09-10T00:56:59.518Z,96046.06
2022-09-10T01:00:07.965Z,96049.75
2022-09-10T01:03:12.160Z,96051.59
2022-09-10T01:06:14.068Z,96048.47
2022-09-10T01:09:16.089Z,96042.06
2022-09-10T01:12:53.265Z,96045.59
2022-09-10T01:16:16.889Z,96047.63
2022-09-10T01:19:32.863Z,96054.66
2022-09-10T01:22:50.373Z,96050.31
2022-09-10T01:26:04.042Z,96050.50
2022-09-10T01:29:32.717Z,96040.09
2022-09-10T01:32:46.871Z,96038.25
2022-09-10T01:35:54.342Z,96040.09
2022-09-10T01:38:56.525Z,96027.06
2022-09-10T01:42:00.209Z,96023.38
2022-09-10T01:45:07.417Z,96026.25
2022-09-10T01:48:23.399Z,96028.25
2022-09-10T01:51:38.574Z,96035.84
2022-09-10T01:55:03.136Z,96031.81
2022-09-10T01:58:19.877Z,96022.28
2022-09-10T02:01:33.608Z,96025.16
2022-09-10T02:04:37.720Z,96022.81
2022-09-10T02:07:39.601Z,96012.47
2022-09-10T02:10:54.042Z,96015.16
2022-09-10T02:13:58.559Z,96009.13
2022-09-10T02:17:28.116Z,96021.88
2022-09-10T02:20:31.211Z,96015.00
2022-09-10T02:23:42.564Z,96018.72
2022-09-10T02:26:44.831Z,96019.56
2022-09-10T02:29:46.538Z,96015.38
2022-09-10T02:32:48.466Z,96015.56
2022-09-10T02:35:50.346Z,96010.38
2022-09-10T02:38:53.398Z,96006.00
2022-09-10T02:41:55.957Z,96014.88
2022-09-10T02:44:57.925Z,96007.88
2022-09-10T02:48:00.280Z,96015.44
2022-09-10T02:51:02.737Z,96015.59
2022-09-10T02:54:05.239Z,96008.56
2022-09-10T02:57:07.685Z,96006.25
2022-09-10T03:00:11.215Z,96012.63
2022-09-10T03:03:13.440Z,96010.13
2022-09-10T03:06:15.145Z,96004.28
2022-09-10T03:09:17.438Z,96009.28
2022-09-10T03:12:19.081Z,96017.31
2022-09-10T03:15:20.754Z,96021.84
2022-09-10T03:18:23.249Z,96020.84
2022-09-10T03:21:28.892Z,96011.31
2022-09-10T03:24:32.429Z,96022.84
2022-09-10T03:27:34.345Z,96023.69
2022-09-10T03:30:37.053Z,96024.34
2022-09-10T03:33:40.986Z,96024.34
2022-09-10T03:36:42.707Z,96023.34
2022-09-10T03:39:45.650Z,96026.69
2022-09-10T03:42:50.346Z,96016.97
2022-09-10T03:45:52.556Z,96018.66
2022-09-10T03:48:55.493Z,96001.75
2022-09-10T03:51:59.718Z,96013.28
2022-09-10T03:55:01.871Z,96005.91
2022-09-10T03:58:04.085Z,96010.91
2022-09-10T04:01:06.188Z,96011.56
2022-09-10T04:04:12.726Z,96017.78
2022-09-10T04:07:14.399Z,96019.41
2022-09-10T04:10:16.117Z,96012.22
2022-09-10T04:13:18.073Z,96013.72
2022-09-10T04:16:21.346Z,96013.53
2022-09-10T04:19:23.337Z,96021.22
2022-09-10T04:22:25.199Z,96011.31
2022-09-10T04:25:27.665Z,96019.03
2022-09-10T04:28:31.383Z,96018.00
2022-09-10T04:31:33.193Z,96012.66
2022-09-10T04:34:44.532Z,96017.00
2022-09-10T04:37:46.857Z,96014.31
2022-09-10T04:40:48.637Z,96016.63
2022-09-10T04:43:50.747Z,96015.78
2022-09-10T04:46:52.478Z,96026.53
2022-09-10T04:49:54.219Z,96020.31
2022-09-10T04:52:56.092Z,96023.66
2022-09-10T04:55:57.866Z,96027.84
2022-09-10T04:58:59.459Z,96022.50
2022-09-10T05:02:03.786Z,96032.84
2022-09-10T05:05:05.947Z,96034.34
2022-09-10T05:08:08.181Z,96037.19
2022-09-10T05:11:10.232Z,96045.22
2022-09-10T05:14:11.967Z,96051.09
2022-09-10T05:17:13.770Z,96053.94
2022-09-10T05:20:15.911Z,96057.28
2022-09-10T05:23:24.330Z,96057.91
2022-09-10T05:26:28.132Z,96061.28
2022-09-10T05:29:34.147Z,96060.94
2022-09-10T05:32:35.808Z,96063.06
2022-09-10T05:35:38.206Z,96071.78
2022-09-10T05:38:41.501Z,96068.06
2022-09-10T05:41:43.865Z,96075.56
2022-09-10T05:44:45.518Z,96068.19
2022-09-10T05:47:47.914Z,96063.47
2022-09-10T05:50:53.928Z,96070.50
2022-09-10T05:53:57.507Z,96063.13
2022-09-10T05:56:59.502Z,96066.47
2022-09-10T06:00:02.169Z,96063.56
2022-09-10T06:03:05.962Z,96068.75
2022-09-10T06:06:19.719Z,96064.25
2022-09-10T06:09:28.874Z,96069.25
2022-09-10T06:12:53.373Z,96072.56
2022-09-10T06:15:56.260Z,96077.59
2022-09-10T06:19:03.449Z,96078.25
2022-09-10T06:22:06.257Z,96074.72
2022-09-10T06:25:12.812Z,96066.97
2022-09-10T06:28:15.886Z,96080.22
2022-09-10T06:31:18.072Z,96074.84
2022-09-10T06:34:20.074Z,96072.00
2022-09-10T06:37:21.945Z,96078.81
2022-09-10T06:40:26.577Z,96086.56
2022-09-10T06:43:32.720Z,96073.13
2022-09-10T06:50:05.852Z,96059.81
2022-09-10T06:53:11.583Z,96068.16
2022-09-10T06:56:13.997Z,96065.94
2022-09-10T06:59:18.325Z,96065.22
2022-09-10T07:02:22.604Z,96069.84
2022-09-10T07:05:28.688Z,96069.13
2022-09-10T07:08:31.201Z,96078.94
2022-09-10T07:11:39.198Z,96076.75
2022-09-10T07:14:44.296Z,96072.81
2022-09-10T07:17:47.016Z,96070.97
2022-09-10T07:20:49.988Z,96087.94
2022-09-10T07:23:56.099Z,96076.75
2022-09-10T07:26:58.197Z,96079.78
2022-09-10T07:30:00.189Z,96101.56
2022-09-10T07:33:02.401Z,96087.09
2022-09-10T07:36:06.479Z,96097.94
2022-09-10T07:39:09.179Z,96100.53
2022-09-10T07:42:13.076Z,96102.69
2022-09-10T07:45:16.237Z,96103.97
2022-09-10T07:48:18.694Z,96108.78
2022-09-10T07:51:21.614Z,96110.75
2022-09-10T07:54:24.799Z,96110.00
2022-09-10T07:57:31.495Z,96112.22
2022-09-10T08:00:34.725Z,96113.78
2022-09-10T08:03:44.036Z,96108.47
2022-09-10T08:06:48.057Z,96116.63
2022-09-10T08:09:50.620Z,96115.19
2022-09-10T08:12:53.675Z,96125.00
2022-09-10T08:15:57.827Z,96128.00
2022-09-10T08:19:00.620Z,96134.00
2022-09-10T08:22:04.684Z,96132.59
2022-09-10T08:25:13.814Z,96139.25
2022-09-10T08:28:22.430Z,96144.94
2022-09-10T08:31:27.465Z,96143.50
2022-09-10T08:34:40.832Z,96147.47
2022-09-10T08:37:44.487Z,96145.91
2022-09-10T08:40:49.603Z,96154.81
2022-09-10T08:44:04.768Z,96151.97
2022-09-10T08:47:30.972Z,96159.69
2022-09-10T08:50:49.858Z,96153.25
2022-09-10T08:54:05.573Z,96157.03
2022-09-10T08:57:22.224Z,96161.66
2022-09-10T09:00:29.017Z,96168.16
2022-09-10T09:03:40.008Z,96165.25
2022-09-10T09:06:48.224Z,96168.59
2022-09-10T09:09:52.083Z,96169.41
2022-09-10T09:13:17.875Z,96164.03
2022-09-10T09:16:44.350Z,96168.22
2022-09-10T09:20:10.400Z,96166.97
2022-09-10T09:23:29.067Z,96171.63
2022-09-10T09:26:36.597Z,96159.81
2022-09-10T09:29:59.382Z,96171.69
2022-09-10T09:33:34.167Z,96172.97
2022-09-10T09:36:44.982Z,96166.97
2022-09-10T09:40:05.547Z,96169.28
2022-09-10T09:43:23.910Z,96164.75
2022-09-10T09:46:25.949Z,96158.91
2022-09-10T09:49:32.711Z,96155.00
2022-09-10T09:52:35.013Z,96161.59
2022-09-10T09:55:43.752Z,96165.94
2022-09-10T09:58:50.361Z,96165.94
2022-09-10T10:01:52.809Z,96157.88
2022-09-10T10:05:05.212Z,96155.38
2022-09-10T10:08:26.161Z,96162.03
2022-09-10T10:11:42.142Z,96160.00
2022-09-10T10:14:44.074Z,96167.88
2022-09-10T10:17:45.698Z,96152.34
2022-09-10T10:20:47.772Z,96147.13
2022-09-10T10:23:49.802Z,96146.75
2022-09-10T10:26:52.673Z,96138.47
2022-09-10T10:30:14.347Z,96138.72
2022-09-10T10:33:19.369Z,96138.72
2022-09-10T10:36:39.922Z,96128.78
2022-09-10T10:40:02.546Z,96120.50
2022-09-10T10:43:16.066Z,96122.34
2022-09-10T10:46:25.553Z,96130.25
2022-09-10T10:49:55.649Z,96135.84
2022-09-10T10:53:21.536Z,96121.91
2022-09-10T10:56:36.195Z,96128.72
2022-09-10T11:00:01.333Z,96125.38
2022-09-10T11:03:12.813Z,96125.75
2022-09-10T11:06:20.252Z,96114.59
2022-09-10T11:09:31.293Z,96118.88
2022-09-10T11:12:43.540Z,96121.41
2022-09-10T11:16:01.360Z,96110.66
2022-09-10T11:19:15.453Z,96105.94
2022-09-10T11:22:27.210Z,96105.78
2022-09-10T11:25:33.143Z,96101.88
2022-09-10T11:28:40.143Z,96103.59
2022-09-10T11:32:00.746Z,96098.06
2022-09-10T11:35:29.178Z,96102.22
2022-09-10T11:38:59.052Z,96091.84
2022-09-10T11:42:10.344Z,96095.00
2022-09-10T11:45:25.128Z,96079.25
2022-09-10T11:48:38.730Z,96087.75
2022-09-10T11:51:41.737Z,96085.69
2022-09-10T11:54:47.495Z,96089.63
2022-09-10T11:57:59.547Z,96095.84
2022-09-10T12:01:39.902Z,96091.28
2022-09-10T12:04:47.380Z,96100.59
2022-09-10T12:08:23.398Z,96109.31
2022-09-10T12:11:47.898Z,96100.38
2022-09-10T12:14:49.726Z,96102.06
2022-09-10T12:18:07.056Z,96098.94
2022-09-10T12:21:23.532Z,96100.41
2022-09-10T12:24:32.536Z,96101.47
2022-09-10T12:27:52.512Z,96090.06
2022-09-10T12:31:01.052Z,96094.03
2022-09-10T12:34:23.105Z,96081.78
2022-09-10T12:37:28.153Z,96076.78
2022-09-10T12:40:29.775Z,96065.38
2022-09-10T12:43:40.700Z,96072.25
2022-09-10T12:46:44.907Z,96066.00
2022-09-10T12:50:17.853Z,96059.16
2022-09-10T12:53:43.283Z,96071.00
2022-09-10T12:57:00.170Z,96072.22
2022-09-10T13:00:18.216Z,96065.38
2022-09-10T13:03:28.029Z,96069.72
2022-09-10T13:06:41.663Z,96072.66
2022-09-10T13:09:43.611Z,96072.03
2022-09-10T13:12:47.027Z,96069.31
2022-09-10T13:15:53.071Z,96067.44
2022-09-10T13:19:14.713Z,96060.38
2022-09-10T13:23:11.923Z,96060.78
2022-09-10T13:26:28.549Z,96068.28
2022-09-10T13:29:36.637Z,96072.00
2022-09-10T13:32:48.207Z,96076.78
2022-09-10T13:36:05.568Z,96079.88
2022-09-10T13:39:46.047Z,96083.00
2022-09-10T13:43:19.026Z,96082.19
2022-09-10T13:46:32.020Z,96074.91
2022-09-10T13:49:53.549Z,96068.69
2022-09-10T13:53:00.050Z,96077.63
2022-09-10T13:56:17.911Z,96071.38
2022-09-10T13:59:28.162Z,96075.13
2022-09-10T14:02:44.392Z,96062.44
2022-09-10T14:05:50.757Z,96062.88
2022-09-10T14:09:03.733Z,96058.91
2022-09-10T14:12:08.407Z,96057.88
2022-09-10T14:15:18.842Z,96058.31
2022-09-10T14:18:21.503Z,96057.47
2022-09-10T14:21:27.103Z,96054.38
2022-09-10T14:24:44.152Z,96054.38
2022-09-10T14:27:46.363Z,96046.66
2022-09-10T14:30:50.187Z,96051.25
2022-09-10T14:33:53.052Z,96050.19
2022-09-10T14:36:54.678Z,96058.94
2022-09-10T14:39:56.677Z,96055.19
2022-09-10T14:43:15.274Z,96064.75
2022-09-10T14:46:51.340Z,96067.25
2022-09-10T14:49:53.170Z,96072.84
2022-09-10T14:52:55.503Z,96080.13
2022-09-10T14:55:57.345Z,96069.50
2022-09-10T14:59:04.514Z,96072.00
2022-09-10T15:02:16.905Z,96068.03
2022-09-10T15:05:18.707Z,96069.25
2022-09-10T15:08:20.363Z,96078.13
2022-09-10T15:11:24.221Z,96071.84
2022-09-10T15:14:26.253Z,96069.53
2022-09-10T15:17:27.952Z,96065.00
2022-09-10T15:20:29.583Z,96054.91
2022-09-10T15:23:32.269Z,96050.22
2022-09-10T15:26:34.073Z,96050.22
2022-09-10T15:29:35.745Z,96052.47
2022-09-10T15:32:37.361Z,96056.44
2022-09-10T15:35:39.148Z,96047.94
2022-09-10T15:38:40.712Z,96051.03
2022-09-10T15:41:44.365Z,96045.84
2022-09-10T15:44:45.981Z,96038.56
2022-09-10T15:47:47.641Z,96043.38
2022-09-10T15:50:49.855Z,96041.25
2022-09-10T15:53:53.018Z,96038.53
2022-09-10T15:56:54.675Z,96022.41
2022-09-10T15:59:56.457Z,96026.09
2022-09-10T16:02:58.243Z,96026.28
2022-09-10T16:06:02.542Z,96027.34
2022-09-10T16:09:07.699Z,96039.69
2022-09-10T16:12:10.064Z,96036.19
2022-09-10T16:15:14.258Z,96047.25
2022-09-10T16:18:15.833Z,96045.00
2022-09-10T16:21:23.415Z,96048.97
2022-09-10T16:24:24.990Z,96050.00
2022-09-10T16:27:26.623Z,96046.66
2022-09-10T16:30:29.374Z,96056.22
2022-09-10T16:33:31.625Z,96053.72
2022-09-10T16:36:35.002Z,96054.78
2022-09-10T16:39:36.741Z,96058.69
2022-09-10T16:42:38.314Z,96059.09
2022-09-10T16:45:49.712Z,96061.97
2022-09-10T16:48:52.996Z,96068.00
2022-09-10T16:51:54.639Z,96066.53
2022-09-10T16:54:57.531Z,96062.78
2022-09-10T16:57:59.164Z,96072.34
2022-09-10T17:01:06.111Z,96075.88
2022-09-10T17:04:08.162Z,96076.84
2022-09-10T17:07:10.026Z,96076.00
2022-09-10T17:10:12.103Z,96074.72
2022-09-10T17:13:14.026Z,96077.19
2022-09-10T17:16:16.839Z,96069.69
2022-09-10T17:19:24.780Z,96074.47
2022-09-10T17:22:27.045Z,96072.16
2022-09-10T17:25:28.798Z,96066.53
2022-09-10T17:28:33.161Z,96076.06
2022-09-10T17:31:35.545Z,96069.41
2022-09-10T17:34:44.555Z,96075.41
2022-09-10T17:37:46.143Z,96076.81
2022-09-10T17:40:54.844Z,96082.00
2022-09-10T17:43:58.606Z,96091.50
2022-09-10T17:47:00.203Z,96098.31
2022-09-10T17:50:02.135Z,96104.09
2022-09-10T17:53:03.725Z,96104.88
2022-09-10T17:56:07.914Z,96095.75
2022-09-10T17:59:11.645Z,96110.84
2022-09-10T18:02:15.491Z,96109.56
2022-09-10T18:05:17.175Z,96111.38
2022-09-10T18:08:19.200Z,96114.00
2022-09-10T18:11:23.639Z,96117.31
2022-09-10T18:14:25.731Z,96122.00
2022-09-10T18:17:27.339Z,96141.47
2022-09-10T18:20:29.715Z,96131.06
2022-09-10T18:23:31.381Z,96132.69
2022-09-10T18:26:36.542Z,96126.84
2022-09-10T18:29:41.483Z,96131.78
2022-09-10T18:32:43.375Z,96120.13
2022-09-10T18:35:46.809Z,96128.56
2022-09-10T18:38:48.653Z,96129.34
2022-09-10T18:41:50.575Z,96140.69
2022-09-10T18:44:52.166Z,96132.38
2022-09-10T18:47:53.955Z,96143.69
2022-09-10T18:50:55.626Z,96142.59
2022-09-10T18:54:00.043Z,96150.03
2022-09-10T18:57:01.826Z,96159.72
2022-09-10T19:00:04.193Z,96158.22
2022-09-10T19:03:06.366Z,96160.47
2022-09-10T19:06:17.231Z,96164.19
2022-09-10T19:09:23.686Z,96166.44
2022-09-10T19:12:28.131Z,96163.63
2022-09-10T19:15:29.696Z,96171.91
2022-09-10T19:18:31.943Z,96168.94
2022-09-10T19:21:35.463Z,96167.75
2022-09-10T19:24:54.663Z,96168.94
2022-09-10T19:27:59.169Z,96170.16
2022-09-10T19:31:03.485Z,96167.47
2022-09-10T19:34:06.923Z,96170.16
2022-09-10T19:37:08.539Z,96169.50
2022-09-10T19:40:11.944Z,96179.44
2022-09-10T19:43:13.646Z,96180.63
2022-09-10T19:46:16.680Z,96177.31
2022-09-10T19:49:18.529Z,96182.88
2022-09-10T19:52:21.731Z,96179.34
2022-09-10T19:55:23.988Z,96182.22
2022-09-10T19:58:25.585Z,96174.72
2022-09-10T20:01:32.448Z,96175.38
2022-09-10T20:04:35.681Z,96169.16
2022-09-10T20:07:37.289Z,96172.69
2022-09-10T20:10:49.966Z,96185.31
2022-09-10T20:13:57.287Z,96178.44
2022-09-10T20:16:59.475Z,96186.69
2022-09-10T20:20:05.842Z,96183.16
2022-09-10T20:23:07.429Z,96188.72
2022-09-10T20:26:20.074Z,96180.84
2022-09-10T20:29:23.183Z,96181.69
2022-09-10T20:32:25.454Z,96175.66
2022-09-10T20:35:30.291Z,96185.53
2022-09-10T20:38:33.639Z,96186.56
2022-09-10T20:41:35.357Z,96181.56
2022-09-10T20:44:37.123Z,96196.88
2022-09-10T20:47:43.075Z,96191.66
2022-09-10T20:50:58.418Z,96190.00
2022-09-10T20:54:00.558Z,96182.09
2022-09-10T20:57:02.238Z,96197.41
2022-09-10T21:00:06.240Z,96185.81
2022-09-10T21:03:09.729Z,96190.75
2022-09-10T21:06:13.928Z,96192.22
2022-09-10T21:09:15.591Z,96196.78
2022-09-10T21:12:17.197Z,96194.44
2022-09-10T21:15:18.951Z,96196.66
2022-09-10T21:18:20.527Z,96190.44
2022-09-10T21:21:25.689Z,96197.50
2022-09-10T21:24:27.463Z,96191.28
2022-09-10T21:27:29.311Z,96189.16
2022-09-10T21:30:31.066Z,96190.16
2022-09-10T21:33:33.569Z,96198.41
2022-09-10T21:36:37.509Z,96190.91
2022-09-10T21:39:39.366Z,96193.41
2022-09-10T21:42:41.047Z,96197.13
2022-09-10T21:45:46.289Z,96198.97
2022-09-10T21:48:48.069Z,96201.84
2022-09-10T21:51:50.422Z,96200.00
2022-09-10T21:54:52.022Z,96193.78
2022-09-10T21:57:53.666Z,96196.66
2022-09-10T22:01:01.149Z,96193.78
2022-09-10T22:04:03.138Z,96196.47
2022-09-10T22:07:04.974Z,96185.25
2022-09-10T22:10:09.358Z,96184.78
2022-09-10T22:13:11.976Z,96181.47
2022-09-10T22:16:13.697Z,96189.81
2022-09-10T22:19:22.398Z,96182.94
2022-09-10T22:22:25.131Z,96186.84
2022-09-10T22:25:28.825Z,96182.84
2022-09-10T22:28:34.974Z,96185.69
2022-09-10T22:31:38.624Z,96188.38
2022-09-10T22:34:41.701Z,96187.75
2022-09-10T22:37:46.504Z,96198.28
2022-09-10T22:40:49.452Z,96192.28
2022-09-10T22:43:52.885Z,96195.81
2022-09-10T22:46:55.949Z,96196.44
2022-09-10T22:49:58.735Z,96194.31
2022-09-10T22:53:01.895Z,96202.38
2022-09-10T22:56:05.461Z,96199.69
2022-09-10T22:59:11.621Z,96211.63
2022-09-10T23:02:14.588Z,96203.13
2022-09-10T23:05:18.097Z,96204.31
2022-09-10T23:08:21.103Z,96200.78
2022-09-10T23:11:32.714Z,96202.00
2022-09-10T23:14:35.721Z,96204.84
2022-09-10T23:17:39.021Z,96195.97
2022-09-10T23:20:42.663Z,96201.69
2022-09-10T23:23:47.716Z,96201.69
2022-09-10T23:26:51.224Z,96206.59
2022-09-10T23:29:54.272Z,96204.94
2022-09-10T23:32:57.266Z,96207.63
2022-09-10T23:36:00.287Z,96208.44
2022-09-10T23:39:06.808Z,96204.25
2022-09-10T23:42:09.687Z,96214.00
2022-09-10T23:45:12.487Z,96210.66
2022-09-10T23:48:15.281Z,96210.66
2022-09-10T23:51:21.006Z,96209.81
2022-09-10T23:54:23.970Z,96211.66
2022-09-10T23:57:26.973Z,96209.34
